Time;durP1;ratioP1;P1;durP2;ratioP2;P2;SDS_P1;SDS_P2;PMS_P1;PMS_P2;Temp;Humidity;BMP_temperature;BMP_pressure;BME280_temperature;BME280_humidity;BME280_pressure;Samples;Min_cycle;Max_cycle;Signal;HPM_P1;HPM_P2
2021/12/10 00:01:12;;;;;;;4.70;2.15;;;;;;;;;;5085766;28;20028;-55
2021/12/10 00:03:43;;;;;;;12.07;2.45;;;;;;;;;;5091067;28;20043;-56
2021/12/10 00:06:13;;;;;;;5.80;2.05;;;;;;;;;;5085011;28;20031;-55
2021/12/10 00:08:43;;;;;;;5.15;1.90;;;;;;;;;;5080911;28;20457;-58
2021/12/10 00:11:12;;;;;;;;;;;;;;;;;;5087506;28;20032;-55
2021/12/10 00:13:40;;;;;;;4.53;1.70;;;;;;;;;;5090097;28;20567;-55
2021/12/10 00:16:06;;;;;;;3.65;1.63;;;;;;;;;;5089059;28;20077;-55
2021/12/10 00:18:35;;;;;;;3.58;1.60;;;;;;;;;;5092297;28;20563;-58
2021/12/10 00:21:03;;;;;;;6.10;1.52;;;;;;;;;;5087964;28;20065;-56
2021/12/10 00:23:31;;;;;;;8.02;2.00;;;;;;;;;;5087718;28;20081;-54
2021/12/10 00:25:57;;;;;;;5.18;1.70;;;;;;;;;;5087281;28;20048;-56
2021/12/10 00:28:32;;;;;;;7.97;1.90;;;;;;;;;;5088132;28;20020;-53
2021/12/10 00:31:31;;;;;;;4.10;1.42;;;;;;;;;;5088593;28;20028;-55
2021/12/10 00:34:04;;;;;;;7.25;1.48;;;;;;;;;;5090021;28;20024;-58
2021/12/10 00:36:30;;;;;;;6.85;1.88;;;;;;;;;;5088649;28;20035;-57
2021/12/10 00:38:55;;;;;;;4.40;1.27;;;;;;;;;;5089821;28;20024;-56
2021/12/10 00:41:23;;;;;;;7.32;1.52;;;;;;;;;;5089852;28;20150;-55
2021/12/10 00:43:48;;;;;;;7.38;1.65;;;;;;;;;;5087301;28;20031;-55
2021/12/10 00:46:15;;;;;;;5.40;1.90;;;;;;;;;;5089356;28;20020;-55
2021/12/10 00:48:40;;;;;;;6.55;1.52;;;;;;;;;;5087447;28;20077;-56
2021/12/10 00:51:08;;;;;;;6.63;2.00;;;;;;;;;;5089525;28;20111;-51
2021/12/10 00:53:35;;;;;;;6.57;1.80;;;;;;;;;;5090174;28;20035;-54
2021/12/10 00:56:02;;;;;;;8.52;1.70;;;;;;;;;;5091074;28;20395;-55
2021/12/10 00:58:28;;;;;;;6.53;1.70;;;;;;;;;;5086661;28;20474;-55
2021/12/10 01:00:59;;;;;;;4.25;2.00;;;;;;;;;;5088527;28;20028;-55
2021/12/10 01:03:33;;;;;;;4.47;1.40;;;;;;;;;;5087113;28;20028;-55
2021/12/10 01:06:02;;;;;;;10.65;2.00;;;;;;;;;;5084265;28;20110;-55
2021/12/10 01:08:30;;;;;;;4.50;1.70;;;;;;;;;;5087102;28;20028;-55
2021/12/10 01:11:02;;;;;;;6.53;2.33;;;;;;;;;;5086530;28;20905;-55
2021/12/10 01:13:32;;;;;;;7.35;1.83;;;;;;;;;;5086487;28;20482;-54
2021/12/10 01:24:18;;;;;;;9.00;2.35;;;;;;;;;;5089284;28;20031;-57
2021/12/10 01:29:19;;;;;;;9.88;2.78;;;;;;;;;;5086761;28;20020;-55
2021/12/10 01:31:45;;;;;;;7.28;2.30;;;;;;;;;;5088681;28;20530;-55
2021/12/10 01:34:11;;;;;;;4.70;1.80;;;;;;;;;;5087712;28;20036;-55
2021/12/10 01:36:38;;;;;;;9.13;2.22;;;;;;;;;;5090140;28;20024;-52
2021/12/10 01:39:10;;;;;;;4.18;1.90;;;;;;;;;;5089690;28;20020;-53
2021/12/10 01:41:39;;;;;;;7.00;2.25;;;;;;;;;;5085083;28;20374;-57
2021/12/10 01:44:15;;;;;;;5.22;2.55;;;;;;;;;;5087841;28;20102;-55
2021/12/10 01:46:41;;;;;;;8.93;2.08;;;;;;;;;;5084748;28;20103;-53
2021/12/10 01:49:09;;;;;;;6.43;2.78;;;;;;;;;;5086932;28;20433;-53
2021/12/10 01:51:37;;;;;;;9.57;2.60;;;;;;;;;;5087796;28;20531;-57
2021/12/10 01:54:17;;;;;;;9.07;2.45;;;;;;;;;;5088710;28;20028;-58
2021/12/10 01:56:42;;;;;;;8.25;3.33;;;;;;;;;;5087937;28;20522;-57
2021/12/10 01:59:12;;;;;;;6.18;2.50;;;;;;;;;;5092289;28;20206;-55
2021/12/10 02:01:44;;;;;;;11.27;3.20;;;;;;;;;;5091420;28;20032;-57
2021/12/10 02:04:14;;;;;;;8.60;3.55;;;;;;;;;;5087588;28;20032;-56
2021/12/10 02:06:40;;;;;;;;;;;;;;;;;;5087768;28;20024;-53
2021/12/10 02:09:07;;;;;;;8.63;3.17;;;;;;;;;;5086207;28;19923;-55
2021/12/10 02:11:33;;;;;;;8.48;3.92;;;;;;;;;;5084350;28;20113;-51
2021/12/10 02:13:58;;;;;;;9.00;3.70;;;;;;;;;;5088280;28;20180;-52
2021/12/10 02:16:24;;;;;;;6.38;3.33;;;;;;;;;;5089116;28;20034;-56
2021/12/10 02:18:49;;;;;;;9.57;3.58;;;;;;;;;;5085201;28;20026;-56
2021/12/10 02:21:18;;;;;;;10.15;3.85;;;;;;;;;;5086420;28;20032;-55
2021/12/10 02:23:50;;;;;;;12.07;4.45;;;;;;;;;;5087050;28;20028;-57
2021/12/10 02:26:16;;;;;;;11.80;4.30;;;;;;;;;;5084520;28;20344;-55
2021/12/10 02:28:42;;;;;;;7.78;3.33;;;;;;;;;;5087150;28;20032;-56
2021/12/10 02:31:09;;;;;;;10.25;4.32;;;;;;;;;;5087835;28;20202;-52
2021/12/10 02:33:36;;;;;;;11.10;5.03;;;;;;;;;;5084971;28;20032;-54
2021/12/10 02:36:02;;;;;;;13.10;4.10;;;;;;;;;;5088247;28;20039;-56
2021/12/10 02:38:28;;;;;;;11.60;4.95;;;;;;;;;;5088335;28;20421;-56
2021/12/10 02:40:54;;;;;;;9.90;4.40;;;;;;;;;;5089668;28;20032;-58
2021/12/10 02:43:22;;;;;;;12.27;4.75;;;;;;;;;;5083345;28;20036;-55
2021/12/10 02:45:52;;;;;;;7.78;4.00;;;;;;;;;;5085683;28;20506;-56
2021/12/10 02:48:18;;;;;;;12.38;5.47;;;;;;;;;;5085608;28;20042;-56
2021/12/10 02:50:44;;;;;;;12.75;4.75;;;;;;;;;;5086745;28;20039;-54
2021/12/10 02:53:11;;;;;;;11.20;4.35;;;;;;;;;;5085945;28;20027;-55
2021/12/10 02:55:37;;;;;;;10.25;4.90;;;;;;;;;;5082846;28;20051;-55
2021/12/10 02:58:06;;;;;;;9.20;4.40;;;;;;;;;;5088573;28;20475;-55
2021/12/10 03:00:36;;;;;;;10.50;4.87;;;;;;;;;;5087666;28;20058;-56
2021/12/10 03:03:02;;;;;;;10.05;4.85;;;;;;;;;;5088503;28;20138;-54
2021/12/10 03:05:28;;;;;;;10.70;5.43;;;;;;;;;;5085347;28;20550;-56
2021/12/10 03:07:54;;;;;;;14.70;4.97;;;;;;;;;;5085564;28;20039;-55
2021/12/10 03:10:24;;;;;;;16.30;4.72;;;;;;;;;;5085113;28;20397;-53
2021/12/10 03:12:50;;;;;;;15.57;6.22;;;;;;;;;;5084957;28;20027;-56
2021/12/10 03:15:17;;;;;;;10.88;4.28;;;;;;;;;;5090149;28;20024;-56
2021/12/10 03:17:43;;;;;;;14.00;5.60;;;;;;;;;;5084180;28;20241;-55
2021/12/10 03:20:13;;;;;;;9.93;4.65;;;;;;;;;;5089229;28;20055;-55
2021/12/10 03:22:39;;;;;;;12.88;5.72;;;;;;;;;;5087984;28;20485;-54
2021/12/10 03:25:10;;;;;;;8.52;4.72;;;;;;;;;;5086397;28;20032;-57
2021/12/10 03:27:35;;;;;;;12.25;5.25;;;;;;;;;;5085750;28;20493;-53
2021/12/10 03:30:02;;;;;;;16.55;5.15;;;;;;;;;;5085300;28;20032;-56
2021/12/10 03:32:30;;;;;;;10.05;4.80;;;;;;;;;;5083554;28;20052;-55
2021/12/10 03:34:58;;;;;;;9.60;4.88;;;;;;;;;;5085074;28;20400;-55
2021/12/10 03:37:24;;;;;;;11.98;5.82;;;;;;;;;;5086930;28;20436;-55
2021/12/10 03:39:52;;;;;;;13.35;5.30;;;;;;;;;;5087000;28;20024;-56
2021/12/10 03:42:18;;;;;;;10.93;5.13;;;;;;;;;;5087414;28;20043;-56
2021/12/10 03:44:44;;;;;;;11.60;4.78;;;;;;;;;;5085199;28;20035;-56
2021/12/10 03:47:10;;;;;;;13.80;5.53;;;;;;;;;;5084358;28;20106;-56
2021/12/10 03:49:37;;;;;;;16.98;5.57;;;;;;;;;;5089940;28;20057;-54
2021/12/10 03:52:06;;;;;;;11.90;5.20;;;;;;;;;;5084225;28;20160;-55
2021/12/10 03:54:32;;;;;;;13.25;5.28;;;;;;;;;;5082103;28;20486;-57
2021/12/10 03:56:57;;;;;;;14.45;5.60;;;;;;;;;;5084709;28;20269;-55
2021/12/10 03:59:23;;;;;;;11.40;5.60;;;;;;;;;;5087524;28;20046;-57
2021/12/10 04:01:53;;;;;;;14.02;6.10;;;;;;;;;;5084640;28;20123;-51
2021/12/10 04:04:28;;;;;;;14.57;6.40;;;;;;;;;;5084854;28;20032;-52
2021/12/10 04:06:55;;;;;;;17.48;6.32;;;;;;;;;;5086136;28;20028;-54
2021/12/10 04:09:22;;;;;;;15.35;6.95;;;;;;;;;;5084453;28;20024;-55
2021/12/10 04:11:48;;;;;;;12.55;6.18;;;;;;;;;;5083534;28;20024;-55
2021/12/10 04:14:13;;;;;;;13.05;6.63;;;;;;;;;;5085652;28;20086;-55
2021/12/10 04:16:40;;;;;;;13.20;5.95;;;;;;;;;;5084522;28;20055;-56
2021/12/10 04:19:09;;;;;;;12.82;6.53;;;;;;;;;;5086191;28;20020;-55
2021/12/10 04:21:40;;;;;;;15.02;6.72;;;;;;;;;;5086187;28;20493;-57
2021/12/10 04:24:15;;;;;;;14.70;6.50;;;;;;;;;;5084384;28;20039;-54
2021/12/10 04:26:41;;;;;;;18.80;6.88;;;;;;;;;;5084306;28;20039;-56
2021/12/10 04:29:07;;;;;;;16.67;6.30;;;;;;;;;;5085591;28;20032;-55
2021/12/10 04:31:32;;;;;;;13.77;6.63;;;;;;;;;;5084859;28;20059;-55
2021/12/10 04:33:58;;;;;;;13.82;7.07;;;;;;;;;;5086047;28;20051;-57
2021/12/10 04:36:24;;;;;;;15.48;6.85;;;;;;;;;;5085304;28;20019;-55
2021/12/10 04:38:49;;;;;;;17.52;6.53;;;;;;;;;;5086131;28;20021;-54
2021/12/10 04:41:15;;;;;;;18.33;6.38;;;;;;;;;;5087742;28;20127;-54
2021/12/10 04:43:42;;;;;;;20.52;7.68;;;;;;;;;;5083909;28;20032;-56
2021/12/10 04:46:08;;;;;;;16.33;6.97;;;;;;;;;;5086201;28;20028;-57
2021/12/10 04:49:04;;;;;;;19.73;8.50;;;;;;;;;;5085594;28;20028;-55
2021/12/10 04:51:35;;;;;;;21.52;8.48;;;;;;;;;;5073777;28;20452;-56
2021/12/10 04:54:01;;;;;;;21.10;7.18;;;;;;;;;;5084256;28;20024;-56
2021/12/10 04:56:27;;;;;;;19.15;7.43;;;;;;;;;;5083011;28;20024;-55
2021/12/10 04:58:54;;;;;;;19.13;7.53;;;;;;;;;;5088630;28;20016;-54
2021/12/10 05:01:20;;;;;;;18.50;7.57;;;;;;;;;;5089810;28;20032;-56
2021/12/10 05:03:45;;;;;;;16.30;7.05;;;;;;;;;;5089925;28;20401;-56
2021/12/10 05:06:11;;;;;;;25.15;7.88;;;;;;;;;;5084996;28;20032;-54
2021/12/10 05:08:37;;;;;;;20.25;8.52;;;;;;;;;;5086858;28;20035;-56
2021/12/10 05:11:06;;;;;;;19.92;7.97;;;;;;;;;;5088868;28;20043;-56
2021/12/10 05:13:31;;;;;;;20.05;8.40;;;;;;;;;;5087897;28;20034;-56
2021/12/10 05:15:58;;;;;;;21.38;7.72;;;;;;;;;;5087701;28;20020;-58
2021/12/10 05:18:30;;;;;;;18.45;7.90;;;;;;;;;;5090851;28;20485;-56
2021/12/10 05:20:57;;;;;;;19.00;7.55;;;;;;;;;;5086805;28;20035;-56
2021/12/10 05:23:23;;;;;;;21.42;7.60;;;;;;;;;;5088473;28;20462;-58
2021/12/10 05:25:50;;;;;;;18.85;6.53;;;;;;;;;;5088544;28;20038;-53
2021/12/10 05:28:16;;;;;;;19.90;6.82;;;;;;;;;;5089643;28;20127;-56
2021/12/10 05:30:43;;;;;;;23.15;7.40;;;;;;;;;;5090233;28;20053;-58
2021/12/10 05:33:14;;;;;;;18.40;6.63;;;;;;;;;;5086993;28;20030;-55
2021/12/10 05:35:40;;;;;;;30.52;6.40;;;;;;;;;;5087705;28;20032;-58
2021/12/10 05:38:05;;;;;;;15.02;6.63;;;;;;;;;;5091074;28;20042;-54
2021/12/10 05:40:31;;;;;;;19.27;7.55;;;;;;;;;;5090632;28;20038;-56
2021/12/10 05:42:56;;;;;;;18.70;6.72;;;;;;;;;;5088607;28;20474;-55
2021/12/10 05:45:23;;;;;;;17.20;7.28;;;;;;;;;;5087310;28;20031;-57
2021/12/10 05:47:49;;;;;;;20.67;6.95;;;;;;;;;;5088813;28;20051;-58
2021/12/10 05:50:18;;;;;;;16.42;5.80;;;;;;;;;;5091373;28;20019;-55
2021/12/10 05:52:43;;;;;;;16.17;6.45;;;;;;;;;;5084741;28;20024;-55
2021/12/10 05:55:10;;;;;;;15.25;5.70;;;;;;;;;;5085510;28;20051;-54
2021/12/10 05:57:36;;;;;;;16.70;6.13;;;;;;;;;;5090193;28;20374;-53
2021/12/10 06:00:04;;;;;;;12.07;5.30;;;;;;;;;;5088486;28;20031;-55
2021/12/10 06:02:29;;;;;;;17.60;6.68;;;;;;;;;;5086187;28;20023;-56
2021/12/10 06:04:55;;;;;;;19.50;6.68;;;;;;;;;;5087466;28;20366;-53
2021/12/10 06:07:20;;;;;;;13.68;4.80;;;;;;;;;;5088461;28;20389;-56
2021/12/10 06:09:46;;;;;;;12.38;5.22;;;;;;;;;;5088414;28;20127;-57
2021/12/10 06:12:11;;;;;;;10.98;5.15;;;;;;;;;;5087182;28;20035;-60
2021/12/10 06:14:37;;;;;;;12.07;5.75;;;;;;;;;;5086139;28;20522;-61
2021/12/10 06:17:03;;;;;;;13.82;5.72;;;;;;;;;;5087949;28;20035;-57
2021/12/10 06:19:28;;;;;;;11.93;5.07;;;;;;;;;;5086839;28;20505;-59
2021/12/10 06:21:54;;;;;;;14.57;5.22;;;;;;;;;;5087637;28;20032;-60
2021/12/10 06:24:20;;;;;;;11.30;5.38;;;;;;;;;;5087566;28;20027;-58
2021/12/10 06:26:46;;;;;;;10.82;5.05;;;;;;;;;;5085303;28;20107;-57
2021/12/10 06:29:11;;;;;;;11.25;4.35;;;;;;;;;;5090822;28;20657;-59
2021/12/10 06:31:37;;;;;;;10.82;4.85;;;;;;;;;;5087337;28;20428;-55
2021/12/10 06:34:03;;;;;;;6.45;3.70;;;;;;;;;;5084266;28;20397;-59
2021/12/10 06:36:30;;;;;;;7.68;3.63;;;;;;;;;;5081974;28;20081;-59
2021/12/10 06:38:57;;;;;;;11.00;3.67;;;;;;;;;;5084445;28;20016;-59
2021/12/10 06:41:23;;;;;;;9.65;3.90;;;;;;;;;;5081910;28;20028;-59
2021/12/10 06:43:49;;;;;;;11.25;3.83;;;;;;;;;;5083878;28;20032;-58
2021/12/10 06:46:15;;;;;;;7.00;3.55;;;;;;;;;;5086739;28;20067;-57
2021/12/10 06:48:41;;;;;;;7.05;3.50;;;;;;;;;;5084517;28;20075;-58
2021/12/10 06:51:11;;;;;;;11.45;3.97;;;;;;;;;;5087232;28;20038;-57
2021/12/10 06:53:39;;;;;;;10.13;3.20;;;;;;;;;;5082611;28;20637;-58
2021/12/10 06:56:05;;;;;;;8.20;3.42;;;;;;;;;;5085144;28;20043;-59
2021/12/10 06:58:33;;;;;;;7.72;3.05;;;;;;;;;;5086351;28;20123;-59
2021/12/10 07:01:07;;;;;;;10.32;3.55;;;;;;;;;;5087357;28;20423;-54
2021/12/10 07:03:34;;;;;;;6.80;2.83;;;;;;;;;;5083787;28;20035;-59
2021/12/10 07:06:01;;;;;;;5.25;2.67;;;;;;;;;;5086302;28;20058;-59
2021/12/10 07:08:29;;;;;;;6.75;3.10;;;;;;;;;;5084659;28;20502;-59
2021/12/10 07:10:56;;;;;;;6.25;2.65;;;;;;;;;;5082996;28;20106;-59
2021/12/10 07:13:21;;;;;;;6.50;2.85;;;;;;;;;;5080640;28;20028;-59
2021/12/10 07:15:49;;;;;;;4.97;2.80;;;;;;;;;;5083504;28;20042;-59
2021/12/10 07:18:16;;;;;;;7.28;2.80;;;;;;;;;;5075999;28;20028;-60
2021/12/10 07:20:43;;;;;;;5.55;2.67;;;;;;;;;;5086047;28;20032;-59
2021/12/10 07:23:09;;;;;;;7.28;3.00;;;;;;;;;;5085022;28;20077;-59
2021/12/10 07:25:34;;;;;;;6.05;2.92;;;;;;;;;;5079895;28;20044;-59
2021/12/10 07:28:00;;;;;;;12.07;3.42;;;;;;;;;;5082837;28;20016;-58
2021/12/10 07:30:28;;;;;;;6.47;2.55;;;;;;;;;;5087326;28;20081;-58
2021/12/10 07:32:53;;;;;;;7.35;2.38;;;;;;;;;;5086541;28;20039;-58
2021/12/10 07:35:20;;;;;;;4.45;2.20;;;;;;;;;;5083133;28;20105;-58
2021/12/10 07:37:46;;;;;;;4.40;2.83;;;;;;;;;;5085012;28;20062;-58
2021/12/10 07:40:16;;;;;;;4.05;1.85;;;;;;;;;;5084173;28;20048;-58
2021/12/10 07:42:42;;;;;;;3.38;2.00;;;;;;;;;;5082804;28;20379;-58
2021/12/10 07:45:09;;;;;;;6.25;2.05;;;;;;;;;;5086470;28;20024;-58
2021/12/10 07:47:37;;;;;;;4.40;1.95;;;;;;;;;;5080777;28;20047;-57
2021/12/10 07:50:10;;;;;;;3.95;2.00;;;;;;;;;;5083298;28;20067;-57
2021/12/10 07:52:36;;;;;;;5.50;1.85;;;;;;;;;;5083898;28;20112;-59
2021/12/10 07:55:05;;;;;;;3.45;1.90;;;;;;;;;;5085012;28;20338;-59
2021/12/10 07:57:31;;;;;;;2.25;1.52;;;;;;;;;;5084688;28;20051;-60
2021/12/10 07:59:57;;;;;;;5.05;1.60;;;;;;;;;;5087041;28;20054;-60
2021/12/10 08:02:22;;;;;;;4.07;1.98;;;;;;;;;;5081982;28;20073;-60
2021/12/10 08:04:48;;;;;;;3.88;1.83;;;;;;;;;;5084611;28;20027;-60
2021/12/10 08:07:14;;;;;;;3.47;1.60;;;;;;;;;;5083064;28;20084;-59
2021/12/10 08:09:41;;;;;;;4.28;1.48;;;;;;;;;;5084946;28;20047;-59
2021/12/10 08:12:07;;;;;;;5.28;1.80;;;;;;;;;;5082138;28;20040;-59
2021/12/10 08:14:33;;;;;;;2.22;1.33;;;;;;;;;;5083527;28;20085;-60
2021/12/10 08:16:58;;;;;;;3.97;1.70;;;;;;;;;;5081111;28;20031;-59
2021/12/10 08:19:24;;;;;;;3.92;1.48;;;;;;;;;;5085078;28;20019;-58
2021/12/10 08:21:49;;;;;;;1.95;1.33;;;;;;;;;;5083970;28;20035;-58
2021/12/10 08:24:15;;;;;;;2.92;1.27;;;;;;;;;;5082978;28;20039;-58
2021/12/10 08:26:41;;;;;;;2.80;1.38;;;;;;;;;;5081659;28;20028;-59
2021/12/10 08:29:08;;;;;;;1.92;1.38;;;;;;;;;;5083240;28;20024;-57
2021/12/10 08:31:34;;;;;;;2.85;1.42;;;;;;;;;;5087196;28;20031;-59
2021/12/10 08:33:59;;;;;;;3.92;1.45;;;;;;;;;;5085378;28;20028;-59
2021/12/10 08:36:27;;;;;;;5.68;2.03;;;;;;;;;;5086149;28;20028;-59
2021/12/10 08:38:52;;;;;;;2.13;1.50;;;;;;;;;;5085368;28;20107;-58
2021/12/10 08:41:25;;;;;;;3.65;1.40;;;;;;;;;;5086466;28;20201;-57
2021/12/10 08:43:53;;;;;;;3.28;1.58;;;;;;;;;;5087174;28;20080;-57
2021/12/10 08:46:19;;;;;;;2.07;1.30;;;;;;;;;;5087394;28;20035;-57
2021/12/10 08:48:48;;;;;;;3.97;1.83;;;;;;;;;;5088435;28;20755;-59
2021/12/10 08:51:22;;;;;;;3.90;1.25;;;;;;;;;;5085686;28;20036;-59
2021/12/10 08:53:48;;;;;;;3.05;1.83;;;;;;;;;;5077418;28;20028;-58
2021/12/10 08:56:14;;;;;;;5.75;1.98;;;;;;;;;;5080391;28;20028;-59
2021/12/10 08:58:41;;;;;;;3.80;1.95;;;;;;;;;;5080822;28;20035;-59
2021/12/10 09:01:14;;;;;;;2.50;1.42;;;;;;;;;;5083643;28;20024;-58
2021/12/10 09:03:41;;;;;;;4.30;1.40;;;;;;;;;;5086313;28;20538;-59
2021/12/10 09:06:08;;;;;;;5.15;1.60;;;;;;;;;;5088514;28;20111;-58
2021/12/10 09:08:33;;;;;;;2.22;1.20;;;;;;;;;;5087264;28;20528;-58
2021/12/10 09:11:00;;;;;;;2.92;1.50;;;;;;;;;;5086300;28;20158;-59
2021/12/10 09:13:25;;;;;;;2.25;1.08;;;;;;;;;;5084280;28;20069;-58
2021/12/10 09:15:58;;;;;;;3.92;1.20;;;;;;;;;;5088462;28;20036;-58
2021/12/10 09:18:24;;;;;;;4.93;1.27;;;;;;;;;;5086564;28;20100;-58
2021/12/10 09:20:52;;;;;;;2.22;1.20;;;;;;;;;;5086989;28;20144;-57
2021/12/10 09:23:21;;;;;;;2.17;1.38;;;;;;;;;;5084789;28;20101;-59
2021/12/10 09:25:48;;;;;;;2.72;1.67;;;;;;;;;;5083542;28;20352;-59
2021/12/10 09:28:14;;;;;;;7.50;1.45;;;;;;;;;;5087698;28;20030;-57
2021/12/10 09:30:43;;;;;;;7.40;1.25;;;;;;;;;;5086854;28;20028;-57
2021/12/10 09:33:09;;;;;;;4.20;1.52;;;;;;;;;;5087327;28;20274;-59
2021/12/10 09:35:37;;;;;;;2.80;1.30;;;;;;;;;;5085409;28;20043;-58
2021/12/10 09:38:04;;;;;;;5.82;1.27;;;;;;;;;;5087713;28;20178;-59
2021/12/10 09:40:34;;;;;;;5.65;1.50;;;;;;;;;;5084877;28;20020;-57
2021/12/10 09:43:01;;;;;;;3.30;1.50;;;;;;;;;;5086775;28;20076;-58
2021/12/10 09:45:29;;;;;;;3.03;1.52;;;;;;;;;;5084708;28;20378;-57
2021/12/10 09:47:54;;;;;;;4.50;1.25;;;;;;;;;;5088660;28;20106;-58
2021/12/10 09:50:25;;;;;;;3.75;1.45;;;;;;;;;;5085105;28;20155;-57
2021/12/10 09:52:51;;;;;;;1.30;0.93;;;;;;;;;;5082643;28;20503;-57
2021/12/10 09:55:18;;;;;;;2.95;1.13;;;;;;;;;;5087210;28;20028;-57
2021/12/10 09:57:45;;;;;;;6.95;1.60;;;;;;;;;;5085147;28;20065;-59
2021/12/10 10:00:20;;;;;;;3.05;1.17;;;;;;;;;;5081624;28;20537;-58
2021/12/10 10:02:45;;;;;;;1.83;1.10;;;;;;;;;;5084848;28;20499;-57
2021/12/10 10:05:11;;;;;;;2.88;1.50;;;;;;;;;;5081044;28;20032;-58
2021/12/10 10:07:38;;;;;;;7.45;1.35;;;;;;;;;;5084542;28;20031;-59
2021/12/10 10:10:12;;;;;;;9.95;1.50;;;;;;;;;;5085411;28;20131;-59
2021/12/10 10:12:40;;;;;;;1.95;1.33;;;;;;;;;;5084084;28;20043;-57
2021/12/10 10:15:12;;;;;;;2.70;1.60;;;;;;;;;;5084552;28;20028;-57
2021/12/10 10:17:38;;;;;;;4.65;1.33;;;;;;;;;;5084889;28;20028;-58
2021/12/10 10:20:06;;;;;;;5.55;2.08;;;;;;;;;;5086348;28;20106;-59
2021/12/10 10:22:32;;;;;;;1.80;1.35;;;;;;;;;;5085154;28;20032;-58
2021/12/10 10:24:58;;;;;;;3.97;1.70;;;;;;;;;;5085859;28;20031;-59
2021/12/10 10:27:34;;;;;;;7.15;1.95;;;;;;;;;;5083639;28;20039;-58
2021/12/10 10:30:14;;;;;;;7.43;1.75;;;;;;;;;;5082307;28;20028;-60
2021/12/10 10:32:44;;;;;;;2.85;1.20;;;;;;;;;;5084701;28;20031;-59
2021/12/10 10:35:27;;;;;;;5.25;1.60;;;;;;;;;;5084203;28;20448;-59
2021/12/10 10:37:53;;;;;;;9.95;1.27;;;;;;;;;;5082652;28;20031;-59
2021/12/10 10:40:22;;;;;;;3.15;1.38;;;;;;;;;;5085127;28;20044;-58
2021/12/10 10:42:49;;;;;;;6.60;1.60;;;;;;;;;;5083321;28;20723;-59
2021/12/10 10:45:20;;;;;;;8.38;1.48;;;;;;;;;;5086271;28;20152;-59
2021/12/10 10:47:47;;;;;;;3.55;1.20;;;;;;;;;;5090396;28;20027;-59
2021/12/10 10:50:21;;;;;;;4.28;1.30;;;;;;;;;;5082166;28;20028;-58
2021/12/10 10:52:54;;;;;;;3.08;0.95;;;;;;;;;;5086175;28;20039;-58
2021/12/10 10:55:28;;;;;;;2.38;1.40;;;;;;;;;;5083788;28;20070;-59
2021/12/10 10:57:57;;;;;;;2.17;1.20;;;;;;;;;;5082268;28;20107;-60
2021/12/10 11:00:29;;;;;;;2.42;1.25;;;;;;;;;;5084240;28;20111;-59
2021/12/10 11:03:01;;;;;;;7.55;1.42;;;;;;;;;;5080969;28;20081;-59
2021/12/10 11:05:28;;;;;;;3.85;1.90;;;;;;;;;;5084292;28;20451;-58
2021/12/10 11:07:57;;;;;;;3.63;1.67;;;;;;;;;;5084808;28;20383;-59
2021/12/10 11:10:34;;;;;;;3.35;1.30;;;;;;;;;;5085317;28;20194;-60
2021/12/10 11:13:21;;;;;;;7.32;2.20;;;;;;;;;;5085321;28;20032;-58
2021/12/10 11:16:12;;;;;;;4.30;1.58;;;;;;;;;;5082397;28;20043;-59
2021/12/10 11:18:54;;;;;;;2.22;1.40;;;;;;;;;;5082925;28;20101;-58
2021/12/10 11:21:55;;;;;;;4.57;1.50;;;;;;;;;;5079816;28;20038;-57
2021/12/10 11:24:20;;;;;;;2.75;1.30;;;;;;;;;;5034726;28;20039;-60
2021/12/10 11:26:54;;;;;;;4.43;1.38;;;;;;;;;;5081326;28;20730;-57
2021/12/10 11:29:47;;;;;;;3.40;1.48;;;;;;;;;;5081767;28;20478;-57
2021/12/10 11:32:15;;;;;;;3.55;1.98;;;;;;;;;;5079388;28;20039;-60
2021/12/10 11:34:54;;;;;;;8.77;2.08;;;;;;;;;;5081773;28;20545;-60
2021/12/10 11:37:43;;;;;;;3.35;1.85;;;;;;;;;;5084099;28;20390;-59
2021/12/10 11:40:40;;;;;;;5.82;2.15;;;;;;;;;;5083084;28;20030;-59
2021/12/10 11:43:44;;;;;;;4.30;2.17;;;;;;;;;;5048237;28;20058;-58
2021/12/10 11:49:04;;;;;;;7.20;2.60;;;;;;;;;;5084122;28;20043;-59
2021/12/10 11:51:32;;;;;;;6.55;2.20;;;;;;;;;;5081470;28;21747;-59
2021/12/10 11:54:06;;;;;;;5.88;2.13;;;;;;;;;;5081385;28;20091;-58
2021/12/10 11:56:37;;;;;;;5.68;2.38;;;;;;;;;;5080101;28;20089;-58
2021/12/10 11:59:19;;;;;;;8.77;2.50;;;;;;;;;;5080334;28;20024;-60
2021/12/10 12:01:50;;;;;;;5.03;2.45;;;;;;;;;;5084329;28;20067;-59
2021/12/10 12:04:27;;;;;;;5.75;2.60;;;;;;;;;;5082658;28;20036;-58
2021/12/10 12:07:21;;;;;;;5.40;2.30;;;;;;;;;;5085691;28;20046;-60
2021/12/10 12:09:57;;;;;;;5.55;2.83;;;;;;;;;;5088176;28;20046;-60
2021/12/10 12:12:26;;;;;;;3.58;2.17;;;;;;;;;;5085531;28;20114;-60
2021/12/10 12:15:03;;;;;;;5.63;2.33;;;;;;;;;;5091728;28;20427;-58
2021/12/10 12:17:35;;;;;;;7.72;2.40;;;;;;;;;;5087664;28;20031;-59
2021/12/10 12:20:03;;;;;;;5.30;2.28;;;;;;;;;;5086365;28;20020;-60
2021/12/10 12:25:24;;;;;;;6.65;2.63;;;;;;;;;;5087112;28;20131;-59
2021/12/10 12:28:11;;;;;;;5.85;2.97;;;;;;;;;;5085976;28;20482;-59
2021/12/10 12:31:14;;;;;;;9.63;2.92;;;;;;;;;;5085692;28;20078;-58
2021/12/10 12:34:14;;;;;;;6.60;2.65;;;;;;;;;;5051151;28;20097;-59
2021/12/10 12:36:48;;;;;;;6.32;3.10;;;;;;;;;;5085949;28;20040;-60
2021/12/10 12:39:26;;;;;;;5.93;3.13;;;;;;;;;;5088080;28;20087;-60
2021/12/10 12:41:52;;;;;;;6.60;2.60;;;;;;;;;;5089820;28;20050;-59
2021/12/10 12:44:23;;;;;;;4.90;2.72;;;;;;;;;;5084111;28;20024;-59
2021/12/10 12:47:01;;;;;;;4.97;2.55;;;;;;;;;;5088024;28;20077;-60
2021/12/10 12:49:32;;;;;;;4.40;2.45;;;;;;;;;;5087046;28;20109;-59
2021/12/10 12:52:12;;;;;;;6.93;3.05;;;;;;;;;;5085849;28;20111;-58
2021/12/10 12:55:00;;;;;;;5.13;2.55;;;;;;;;;;5084716;28;20034;-60
2021/12/10 12:57:58;;;;;;;6.53;2.78;;;;;;;;;;5084631;28;20032;-59
2021/12/10 13:00:36;;;;;;;9.23;3.30;;;;;;;;;;5076395;28;20046;-59
2021/12/10 13:03:33;;;;;;;6.00;2.75;;;;;;;;;;5085683;28;20024;-57
2021/12/10 13:06:12;;;;;;;4.45;2.40;;;;;;;;;;5078285;28;20105;-59
2021/12/10 13:08:41;;;;;;;4.75;2.25;;;;;;;;;;5085281;28;20051;-59
2021/12/10 13:11:16;;;;;;;6.18;2.60;;;;;;;;;;5085443;28;20493;-58
2021/12/10 13:13:51;;;;;;;7.60;2.70;;;;;;;;;;5083242;28;20067;-57
2021/12/10 13:16:33;;;;;;;7.88;3.72;;;;;;;;;;5086012;28;20047;-58
2021/12/10 13:18:59;;;;;;;5.72;2.28;;;;;;;;;;5085278;28;20021;-59
2021/12/10 13:21:25;;;;;;;5.32;2.78;;;;;;;;;;5084261;28;20031;-59
2021/12/10 13:23:51;;;;;;;11.10;3.33;;;;;;;;;;5083211;28;20024;-59
2021/12/10 13:26:16;;;;;;;5.03;2.78;;;;;;;;;;5082602;28;20183;-59
2021/12/10 13:28:42;;;;;;;7.03;3.38;;;;;;;;;;5086317;28;20138;-59
2021/12/10 13:31:11;;;;;;;6.18;3.20;;;;;;;;;;5083132;28;20156;-59
2021/12/10 13:33:39;;;;;;;5.20;3.15;;;;;;;;;;5082163;28;20035;-59
2021/12/10 13:36:09;;;;;;;5.75;2.92;;;;;;;;;;5081482;28;20164;-58
2021/12/10 13:38:36;;;;;;;6.60;3.53;;;;;;;;;;5084518;28;20051;-58
2021/12/10 13:41:04;;;;;;;6.80;3.35;;;;;;;;;;5079824;28;20390;-60
2021/12/10 13:43:32;;;;;;;6.57;3.40;;;;;;;;;;5082236;28;20038;-58
2021/12/10 13:46:10;;;;;;;6.32;3.45;;;;;;;;;;5084981;28;20038;-59
2021/12/10 13:48:50;;;;;;;5.60;3.10;;;;;;;;;;5083319;28;20032;-57
2021/12/10 13:51:18;;;;;;;;;;;;;;;;;;5081825;28;21562;-57
2021/12/10 13:54:05;;;;;;;6.05;3.10;;;;;;;;;;5080742;28;19922;-59
2021/12/10 13:56:31;;;;;;;10.23;3.47;;;;;;;;;;5086080;28;20421;-58
2021/12/10 13:59:07;;;;;;;7.60;3.67;;;;;;;;;;5086673;28;20050;-58
2021/12/10 14:01:40;;;;;;;6.88;3.35;;;;;;;;;;5084850;28;20055;-58
2021/12/10 14:04:21;;;;;;;7.15;3.38;;;;;;;;;;5081359;28;20032;-57
2021/12/10 14:07:05;;;;;;;4.97;3.17;;;;;;;;;;5084902;28;20034;-59
2021/12/10 14:12:32;;;;;;;8.25;4.85;;;;;;;;;;5080990;28;20389;-58
2021/12/10 14:15:24;;;;;;;7.13;4.05;;;;;;;;;;5086699;28;20047;-58
2021/12/10 14:17:58;;;;;;;12.85;6.28;;;;;;;;;;5084284;28;20473;-59
2021/12/10 14:20:51;;;;;;;6.43;4.35;;;;;;;;;;5084313;28;20190;-59
2021/12/10 14:23:21;;;;;;;11.38;6.18;;;;;;;;;;5074671;28;20040;-59
2021/12/10 14:26:00;;;;;;;8.93;5.93;;;;;;;;;;5083776;28;20032;-60
2021/12/10 14:28:31;;;;;;;7.60;5.10;;;;;;;;;;5083346;28;20049;-59
2021/12/10 14:30:58;;;;;;;18.13;10.43;;;;;;;;;;5090083;28;20024;-60
2021/12/10 14:33:36;;;;;;;11.80;7.20;;;;;;;;;;5084890;28;20724;-60
2021/12/10 14:36:05;;;;;;;44.72;21.77;;;;;;;;;;5086499;28;20132;-59
2021/12/10 14:38:34;;;;;;;26.02;13.63;;;;;;;;;;5082769;28;20027;-59
2021/12/10 14:41:07;;;;;;;7.95;4.40;;;;;;;;;;5084726;28;20050;-58
2021/12/10 14:43:39;;;;;;;30.73;14.00;;;;;;;;;;5084346;28;20393;-58
2021/12/10 14:46:33;;;;;;;6.65;4.25;;;;;;;;;;5088364;28;20020;-59
2021/12/10 14:49:35;;;;;;;13.35;6.22;;;;;;;;;;5084571;28;20410;-59
2021/12/10 14:52:26;;;;;;;20.02;12.90;;;;;;;;;;5089318;28;20031;-59
2021/12/10 14:55:04;;;;;;;11.95;6.00;;;;;;;;;;5086385;28;20030;-59
2021/12/10 14:57:51;;;;;;;6.30;3.50;;;;;;;;;;5082844;28;20028;-59
2021/12/10 15:01:04;;;;;;;7.50;4.57;;;;;;;;;;5083462;28;20027;-59
2021/12/10 15:03:28;;;;;;;8.32;4.43;;;;;;;;;;5081378;28;20551;-59
2021/12/10 15:05:59;;;;;;;8.20;4.40;;;;;;;;;;5079492;28;20165;-59
2021/12/10 15:08:50;;;;;;;9.13;4.63;;;;;;;;;;5086584;28;20023;-59
2021/12/10 15:11:36;;;;;;;8.45;4.80;;;;;;;;;;5087354;28;20354;-59
2021/12/10 15:14:40;;;;;;;28.15;15.98;;;;;;;;;;5084535;28;20039;-58
2021/12/10 15:17:13;;;;;;;6.35;4.20;;;;;;;;;;5087023;28;20077;-59